Time;durP1;ratioP1;P1;durP2;ratioP2;P2;SDS_P1;SDS_P2;PMS_P1;PMS_P2;Temp;Humidity;BMP_temperature;BMP_pressure;BME280_temperature;BME280_humidity;BME280_pressure;Samples;Min_cycle;Max_cycle;Signal;HPM_P1;HPM_P2
2023/06/05 00:01:40;;;;;;;1.65;1.55;;;;;;;;;;5056348;28;20289;-84
2023/06/05 00:04:08;;;;;;;0.90;0.90;;;;;;;;;;5041862;28;20269;-84
2023/06/05 00:06:37;;;;;;;1.08;1.05;;;;;;;;;;5060658;28;20312;-84
2023/06/05 00:09:04;;;;;;;0.82;0.82;;;;;;;;;;5068504;28;20222;-84
2023/06/05 00:11:32;;;;;;;1.05;1.05;;;;;;;;;;5059363;28;20264;-84
2023/06/05 00:14:00;;;;;;;1.38;1.27;;;;;;;;;;5053692;28;20221;-83
2023/06/05 00:16:27;;;;;;;0.95;0.93;;;;;;;;;;5061115;28;20200;-84
2023/06/05 00:18:55;;;;;;;1.45;1.35;;;;;;;;;;5059426;28;20284;-84
2023/06/05 00:21:25;;;;;;;1.17;0.90;;;;;;;;;;5059131;28;20667;-83
2023/06/05 00:23:52;;;;;;;2.33;1.10;;;;;;;;;;5058798;28;20202;-84
2023/06/05 00:26:20;;;;;;;1.30;1.20;;;;;;;;;;5059882;28;20245;-84
2023/06/05 00:28:47;;;;;;;0.80;0.80;;;;;;;;;;5051550;28;20290;-83
2023/06/05 00:31:17;;;;;;;1.23;0.90;;;;;;;;;;5056793;28;20573;-84
2023/06/05 00:33:44;;;;;;;1.13;1.13;;;;;;;;;;5040264;28;20199;-84
2023/06/05 00:36:12;;;;;;;1.42;1.10;;;;;;;;;;5039244;28;20230;-84
2023/06/05 00:38:41;;;;;;;1.63;1.33;;;;;;;;;;5058883;28;20268;-84
2023/06/05 00:41:08;;;;;;;1.20;1.10;;;;;;;;;;5058822;28;20237;-84
2023/06/05 00:43:37;;;;;;;1.20;1.10;;;;;;;;;;5057123;28;20213;-84
2023/06/05 00:46:06;;;;;;;3.22;1.17;;;;;;;;;;5058054;28;20652;-84
2023/06/05 00:48:35;;;;;;;1.90;1.38;;;;;;;;;;5057110;28;20209;-83
2023/06/05 00:51:02;;;;;;;2.17;1.20;;;;;;;;;;5056817;28;20252;-83
2023/06/05 00:53:31;;;;;;;1.85;1.38;;;;;;;;;;5057641;28;20625;-84
2023/06/05 00:56:01;;;;;;;1.15;1.10;;;;;;;;;;5056471;28;20230;-84
2023/06/05 00:58:30;;;;;;;1.73;1.50;;;;;;;;;;5048115;28;20198;-84
2023/06/05 01:00:58;;;;;;;3.53;1.45;;;;;;;;;;5056003;28;20724;-84
2023/06/05 01:03:29;;;;;;;1.48;1.38;;;;;;;;;;5059355;28;20725;-84
2023/06/05 01:06:03;;;;;;;1.23;1.10;;;;;;;;;;5057628;28;20198;-84
2023/06/05 01:08:38;;;;;;;1.20;1.10;;;;;;;;;;5055188;28;20330;-83
2023/06/05 01:11:15;;;;;;;1.30;1.20;;;;;;;;;;5058018;28;20217;-84
2023/06/05 01:13:51;;;;;;;1.50;1.40;;;;;;;;;;5056495;28;20193;-84
2023/06/05 01:16:19;;;;;;;1.00;1.00;;;;;;;;;;5058907;28;20701;-83
2023/06/05 01:18:46;;;;;;;1.35;1.25;;;;;;;;;;5055990;28;20939;-84
2023/06/05 01:21:14;;;;;;;1.65;1.55;;;;;;;;;;5057524;28;20217;-83
2023/06/05 01:23:45;;;;;;;1.40;1.30;;;;;;;;;;5045607;28;20209;-85
2023/06/05 01:26:18;;;;;;;1.60;1.45;;;;;;;;;;5055535;28;20209;-84
2023/06/05 01:28:48;;;;;;;1.38;1.27;;;;;;;;;;5045143;28;20201;-83
2023/06/05 01:31:19;;;;;;;1.35;1.25;;;;;;;;;;5055366;28;20193;-84
2023/06/05 01:33:56;;;;;;;3.05;1.40;;;;;;;;;;5054984;28;20529;-84
2023/06/05 01:36:24;;;;;;;1.25;1.15;;;;;;;;;;5054801;28;20572;-83
2023/06/05 01:38:54;;;;;;;1.17;1.17;;;;;;;;;;5056026;28;20208;-84
2023/06/05 01:41:22;;;;;;;1.30;1.15;;;;;;;;;;5046893;28;20194;-84
2023/06/05 01:43:49;;;;;;;2.08;1.52;;;;;;;;;;5056227;28;20232;-84
2023/06/05 01:46:20;;;;;;;1.00;1.00;;;;;;;;;;5051594;28;20202;-84
2023/06/05 01:48:50;;;;;;;0.90;0.90;;;;;;;;;;5049734;28;20643;-84
2023/06/05 01:51:17;;;;;;;2.50;1.55;;;;;;;;;;5056199;28;20799;-84
2023/06/05 01:53:48;;;;;;;2.88;1.45;;;;;;;;;;5052783;28;20284;-84
2023/06/05 01:56:19;;;;;;;1.05;1.05;;;;;;;;;;5057323;28;20182;-84
2023/06/05 01:58:48;;;;;;;1.10;1.10;;;;;;;;;;5047114;28;20210;-84
2023/06/05 02:01:17;;;;;;;1.70;1.10;;;;;;;;;;5050944;28;20284;-84
2023/06/05 02:03:47;;;;;;;1.17;1.08;;;;;;;;;;5060387;28;20220;-84
2023/06/05 02:06:16;;;;;;;1.00;1.00;;;;;;;;;;5056227;28;20308;-84
2023/06/05 02:08:44;;;;;;;1.00;1.00;;;;;;;;;;5040441;28;20234;-84
2023/06/05 02:11:11;;;;;;;1.10;1.10;;;;;;;;;;5037370;28;20252;-84
2023/06/05 02:13:41;;;;;;;1.52;1.10;;;;;;;;;;5043570;28;20212;-83
2023/06/05 02:16:13;;;;;;;1.60;1.17;;;;;;;;;;5057060;28;20204;-84
2023/06/05 02:18:41;;;;;;;1.42;1.35;;;;;;;;;;5051274;28;20199;-84
2023/06/05 02:21:08;;;;;;;2.10;1.20;;;;;;;;;;5045443;28;20234;-84
2023/06/05 02:23:36;;;;;;;2.60;1.02;;;;;;;;;;5055515;28;20304;-84
2023/06/05 02:26:03;;;;;;;1.00;1.00;;;;;;;;;;5057646;28;20289;-84
2023/06/05 02:28:30;;;;;;;1.52;1.10;;;;;;;;;;5055243;28;20312;-83
2023/06/05 02:31:01;;;;;;;0.80;0.80;;;;;;;;;;5056319;28;20244;-84
2023/06/05 02:33:28;;;;;;;1.48;1.38;;;;;;;;;;5056433;28;20231;-83
2023/06/05 02:35:56;;;;;;;1.10;1.00;;;;;;;;;;5057289;28;20197;-84
2023/06/05 02:38:23;;;;;;;3.03;1.20;;;;;;;;;;5055197;28;20198;-84
2023/06/05 02:40:51;;;;;;;1.67;1.38;;;;;;;;;;5057712;28;20260;-84
2023/06/05 02:43:19;;;;;;;2.30;1.55;;;;;;;;;;5049995;28;20195;-84
2023/06/05 02:45:47;;;;;;;1.65;1.40;;;;;;;;;;5049526;28;20300;-84
2023/06/05 02:48:16;;;;;;;1.70;1.42;;;;;;;;;;5055517;28;20309;-84
2023/06/05 02:50:43;;;;;;;2.35;1.33;;;;;;;;;;5045866;28;20749;-84
2023/06/05 02:53:11;;;;;;;1.00;1.00;;;;;;;;;;5051784;28;20225;-84
2023/06/05 02:55:40;;;;;;;1.25;1.15;;;;;;;;;;5043893;28;20206;-84
2023/06/05 02:58:07;;;;;;;2.42;2.05;;;;;;;;;;5056198;28;20228;-85
2023/06/05 03:00:35;;;;;;;1.38;1.27;;;;;;;;;;5039730;28;20653;-84
2023/06/05 03:03:03;;;;;;;1.27;1.27;;;;;;;;;;5044740;28;20738;-84
2023/06/05 03:05:33;;;;;;;1.27;1.10;;;;;;;;;;5050797;28;20228;-83
2023/06/05 03:08:01;;;;;;;1.30;1.25;;;;;;;;;;5055537;28;20225;-84
2023/06/05 03:10:29;;;;;;;1.42;1.20;;;;;;;;;;5057346;28;20271;-84
2023/06/05 03:12:56;;;;;;;1.65;1.48;;;;;;;;;;5056058;28;20693;-84
2023/06/05 03:15:24;;;;;;;1.60;1.50;;;;;;;;;;5048530;28;20622;-84
2023/06/05 03:17:51;;;;;;;1.27;1.17;;;;;;;;;;5056475;28;20271;-83
2023/06/05 03:20:20;;;;;;;1.45;1.20;;;;;;;;;;5059470;28;20283;-83
2023/06/05 03:22:49;;;;;;;2.72;1.30;;;;;;;;;;5077175;28;20205;-84
2023/06/05 03:25:17;;;;;;;1.70;1.40;;;;;;;;;;5056333;28;20279;-84
2023/06/05 03:27:46;;;;;;;1.98;1.40;;;;;;;;;;5056028;28;20694;-83
2023/06/05 03:30:16;;;;;;;2.58;1.40;;;;;;;;;;5061701;28;20220;-84
2023/06/05 03:32:43;;;;;;;1.92;1.15;;;;;;;;;;5057268;28;20202;-84
2023/06/05 03:35:11;;;;;;;1.23;1.13;;;;;;;;;;5046112;28;20212;-84
2023/06/05 03:37:38;;;;;;;2.20;1.40;;;;;;;;;;5050278;28;20229;-84
2023/06/05 03:40:09;;;;;;;1.48;1.38;;;;;;;;;;5050153;28;20253;-84
2023/06/05 03:42:37;;;;;;;1.10;1.10;;;;;;;;;;5055706;28;20388;-84
2023/06/05 03:45:06;;;;;;;2.70;1.30;;;;;;;;;;5055367;28;20281;-83
2023/06/05 03:47:34;;;;;;;1.45;1.30;;;;;;;;;;5040335;28;20199;-84
2023/06/05 03:50:03;;;;;;;1.50;1.40;;;;;;;;;;5058355;28;20320;-84
2023/06/05 03:52:30;;;;;;;1.95;1.13;;;;;;;;;;5077719;28;20250;-84
2023/06/05 03:55:00;;;;;;;1.35;1.10;;;;;;;;;;5042813;28;20308;-84
2023/06/05 03:57:29;;;;;;;1.10;1.10;;;;;;;;;;5039124;28;20199;-84
2023/06/05 03:59:56;;;;;;;1.17;1.10;;;;;;;;;;5056667;28;20263;-84
2023/06/05 04:02:23;;;;;;;1.40;1.30;;;;;;;;;;5053064;28;20266;-84
2023/06/05 04:04:51;;;;;;;1.20;1.10;;;;;;;;;;5046763;28;20197;-83
2023/06/05 04:07:19;;;;;;;2.08;1.27;;;;;;;;;;5060257;28;20204;-84
2023/06/05 04:09:46;;;;;;;1.88;1.17;;;;;;;;;;5060512;28;20291;-84
2023/06/05 04:12:14;;;;;;;1.27;1.17;;;;;;;;;;5061271;28;20193;-84
2023/06/05 04:14:44;;;;;;;1.25;1.10;;;;;;;;;;5060441;28;20254;-84
2023/06/05 04:17:13;;;;;;;1.05;0.98;;;;;;;;;;5068655;28;20201;-84
2023/06/05 04:19:40;;;;;;;1.30;1.20;;;;;;;;;;5060403;28;20502;-84
2023/06/05 04:22:08;;;;;;;1.05;1.05;;;;;;;;;;5064405;28;20212;-84
2023/06/05 04:24:37;;;;;;;1.50;1.10;;;;;;;;;;5061820;28;20229;-84
2023/06/05 04:27:08;;;;;;;1.60;1.40;;;;;;;;;;5063048;28;20204;-84
2023/06/05 04:29:36;;;;;;;0.98;0.98;;;;;;;;;;5057359;28;20244;-84
2023/06/05 04:32:05;;;;;;;1.90;1.80;;;;;;;;;;5054789;28;20233;-84
2023/06/05 04:34:33;;;;;;;1.10;1.10;;;;;;;;;;5060812;28;20218;-84
2023/06/05 04:37:01;;;;;;;1.48;1.10;;;;;;;;;;5058127;28;20225;-84
2023/06/05 04:39:29;;;;;;;1.30;1.20;;;;;;;;;;5049147;28;20222;-83
2023/06/05 04:41:56;;;;;;;1.45;1.10;;;;;;;;;;5047342;28;20198;-84
2023/06/05 04:44:23;;;;;;;3.70;1.25;;;;;;;;;;5051134;28;20222;-84
2023/06/05 04:46:51;;;;;;;0.90;0.90;;;;;;;;;;5059134;28;20201;-84
2023/06/05 04:49:21;;;;;;;1.55;1.45;;;;;;;;;;5059097;28;20233;-84
2023/06/05 04:51:48;;;;;;;1.08;1.08;;;;;;;;;;5072056;28;20208;-84
2023/06/05 04:54:16;;;;;;;1.17;1.17;;;;;;;;;;5070199;28;20617;-83
2023/06/05 04:56:45;;;;;;;1.35;1.25;;;;;;;;;;5054970;28;20710;-84
2023/06/05 04:59:13;;;;;;;1.15;1.05;;;;;;;;;;5062712;28;20217;-84
2023/06/05 05:01:40;;;;;;;1.58;1.48;;;;;;;;;;5055395;28;20647;-84
2023/06/05 05:04:09;;;;;;;0.90;0.90;;;;;;;;;;5055270;28;20196;-83
2023/06/05 05:06:38;;;;;;;1.35;1.20;;;;;;;;;;5064395;28;20252;-84
2023/06/05 05:09:06;;;;;;;1.20;1.10;;;;;;;;;;5060973;28;20222;-84
2023/06/05 05:11:34;;;;;;;1.00;1.00;;;;;;;;;;5055484;28;20220;-84
2023/06/05 05:14:01;;;;;;;1.40;1.30;;;;;;;;;;5060283;28;20197;-85
2023/06/05 05:16:29;;;;;;;0.98;0.93;;;;;;;;;;5062342;28;20236;-84
2023/06/05 05:18:57;;;;;;;1.90;0.95;;;;;;;;;;5056990;28;20251;-84
2023/06/05 05:21:24;;;;;;;1.08;1.08;;;;;;;;;;5061778;28;20248;-84
2023/06/05 05:23:53;;;;;;;1.30;1.20;;;;;;;;;;5061322;28;20194;-84
2023/06/05 05:26:21;;;;;;;1.00;1.00;;;;;;;;;;5050174;28;20293;-84
2023/06/05 05:28:49;;;;;;;1.23;1.00;;;;;;;;;;5064229;28;20229;-84
2023/06/05 05:31:17;;;;;;;1.40;1.30;;;;;;;;;;5051233;28;20605;-84
2023/06/05 05:33:44;;;;;;;0.90;0.90;;;;;;;;;;5066961;28;21150;-84
2023/06/05 05:36:14;;;;;;;1.05;1.05;;;;;;;;;;5063611;28;20193;-84
2023/06/05 05:38:41;;;;;;;1.15;0.93;;;;;;;;;;5058238;28;20204;-84
2023/06/05 05:41:10;;;;;;;0.95;0.95;;;;;;;;;;5060204;28;20279;-85
2023/06/05 05:43:37;;;;;;;1.10;1.00;;;;;;;;;;5057830;28;20292;-85
2023/06/05 05:46:05;;;;;;;2.47;1.58;;;;;;;;;;5061362;28;20629;-84
2023/06/05 05:48:34;;;;;;;2.45;1.52;;;;;;;;;;5045171;28;20217;-84
2023/06/05 05:51:02;;;;;;;1.13;1.10;;;;;;;;;;5060708;28;20766;-84
2023/06/05 05:53:29;;;;;;;1.27;1.17;;;;;;;;;;5067355;28;20201;-84
2023/06/05 05:55:57;;;;;;;1.20;1.10;;;;;;;;;;5058875;28;20241;-84
2023/06/05 05:58:26;;;;;;;0.90;0.90;;;;;;;;;;5054097;28;20735;-84
2023/06/05 06:00:55;;;;;;;1.75;1.50;;;;;;;;;;5048571;28;20225;-84
2023/06/05 06:03:23;;;;;;;0.98;0.98;;;;;;;;;;5043024;28;20263;-84
2023/06/05 06:05:50;;;;;;;1.98;1.20;;;;;;;;;;5045276;28;20202;-85
2023/06/05 06:08:18;;;;;;;2.92;1.50;;;;;;;;;;5052865;28;20284;-85
2023/06/05 06:10:46;;;;;;;1.05;1.05;;;;;;;;;;5056745;28;20316;-84
2023/06/05 06:13:14;;;;;;;1.20;1.20;;;;;;;;;;5054518;28;20197;-84
2023/06/05 06:15:43;;;;;;;2.53;1.52;;;;;;;;;;5049600;28;20205;-84
2023/06/05 06:18:11;;;;;;;1.40;1.30;;;;;;;;;;5047870;28;20565;-84
2023/06/05 06:20:39;;;;;;;1.00;1.00;;;;;;;;;;5047261;28;20233;-85
2023/06/05 06:23:07;;;;;;;1.17;1.17;;;;;;;;;;5053044;28;20232;-84
2023/06/05 06:25:36;;;;;;;0.90;0.90;;;;;;;;;;5045378;28;20202;-85
2023/06/05 06:28:04;;;;;;;1.10;1.10;;;;;;;;;;5046595;28;20225;-85
2023/06/05 06:30:32;;;;;;;0.90;0.90;;;;;;;;;;5053071;28;20316;-84
2023/06/05 06:33:03;;;;;;;0.95;0.95;;;;;;;;;;5050754;28;20233;-85
2023/06/05 06:35:32;;;;;;;1.05;1.02;;;;;;;;;;5050813;28;20208;-85
2023/06/05 06:38:00;;;;;;;1.40;1.30;;;;;;;;;;5052022;28;20252;-84
2023/06/05 06:40:28;;;;;;;1.30;1.20;;;;;;;;;;5052671;28;20287;-85
2023/06/05 06:42:56;;;;;;;1.08;1.08;;;;;;;;;;5054578;28;20592;-85
2023/06/05 06:45:24;;;;;;;1.67;1.58;;;;;;;;;;5052743;28;20572;-86
2023/06/05 06:47:51;;;;;;;1.10;1.10;;;;;;;;;;5065129;28;20232;-86
2023/06/05 06:50:20;;;;;;;0.98;0.98;;;;;;;;;;5054834;28;20312;-85
2023/06/05 06:52:47;;;;;;;1.75;1.65;;;;;;;;;;5048209;28;20201;-85
2023/06/05 06:55:15;;;;;;;1.38;1.30;;;;;;;;;;5047349;28;20212;-85
2023/06/05 06:57:43;;;;;;;1.73;1.63;;;;;;;;;;5052566;28;20647;-87
2023/06/05 07:00:12;;;;;;;2.05;1.85;;;;;;;;;;5051100;28;20256;-85
2023/06/05 07:02:43;;;;;;;1.42;1.33;;;;;;;;;;5051610;28;20197;-86
2023/06/05 07:05:11;;;;;;;1.30;1.20;;;;;;;;;;5049206;28;20210;-86
2023/06/05 07:07:39;;;;;;;1.63;1.50;;;;;;;;;;5052113;28;20198;-87
2023/06/05 07:10:08;;;;;;;1.08;1.08;;;;;;;;;;5047340;28;20377;-85
2023/06/05 07:12:35;;;;;;;1.05;1.05;;;;;;;;;;5048419;28;20647;-86
2023/06/05 07:15:03;;;;;;;1.35;1.25;;;;;;;;;;5051977;28;20206;-86
2023/06/05 07:17:31;;;;;;;1.33;1.20;;;;;;;;;;5052416;28;20667;-85
2023/06/05 07:19:58;;;;;;;1.20;1.10;;;;;;;;;;5051576;28;20325;-85
2023/06/05 07:22:27;;;;;;;1.17;1.08;;;;;;;;;;5051516;28;20236;-86
2023/06/05 07:24:57;;;;;;;1.30;1.20;;;;;;;;;;5051271;28;20732;-85
2023/06/05 07:27:25;;;;;;;1.70;1.60;;;;;;;;;;5051245;28;20194;-86
2023/06/05 07:29:53;;;;;;;2.22;1.48;;;;;;;;;;5045768;28;20218;-84
2023/06/05 07:32:20;;;;;;;1.40;1.30;;;;;;;;;;5057541;28;20202;-84
2023/06/05 07:34:48;;;;;;;1.17;1.08;;;;;;;;;;5056816;28;20201;-84
2023/06/05 07:37:16;;;;;;;2.05;1.10;;;;;;;;;;5037818;28;20205;-84
2023/06/05 07:39:43;;;;;;;2.13;1.60;;;;;;;;;;5039431;28;20218;-84
2023/06/05 07:42:12;;;;;;;1.83;1.38;;;;;;;;;;5067223;28;20237;-84
2023/06/05 07:44:40;;;;;;;1.05;0.95;;;;;;;;;;5062990;28;20273;-84
2023/06/05 07:47:07;;;;;;;1.60;1.50;;;;;;;;;;5057720;28;20226;-84
2023/06/05 07:49:35;;;;;;;1.23;1.20;;;;;;;;;;5058006;28;20312;-84
2023/06/05 07:52:02;;;;;;;1.30;1.20;;;;;;;;;;5057555;28;20639;-84
2023/06/05 07:54:30;;;;;;;1.23;1.13;;;;;;;;;;5057220;28;20197;-84
2023/06/05 07:56:58;;;;;;;1.58;1.27;;;;;;;;;;5050265;28;20277;-83
2023/06/05 07:59:27;;;;;;;0.95;0.95;;;;;;;;;;5037381;28;20324;-84
2023/06/05 08:01:56;;;;;;;1.35;1.25;;;;;;;;;;5052157;28;20194;-84
2023/06/05 08:04:27;;;;;;;1.73;1.63;;;;;;;;;;5057949;28;20288;-84
2023/06/05 08:06:54;;;;;;;1.42;1.33;;;;;;;;;;5058207;28;20186;-83
2023/06/05 08:09:22;;;;;;;2.53;1.40;;;;;;;;;;5056369;28;20218;-85
2023/06/05 08:11:50;;;;;;;1.42;1.33;;;;;;;;;;5066058;28;20690;-84
2023/06/05 08:14:17;;;;;;;1.00;1.00;;;;;;;;;;5036343;28;20230;-83
2023/06/05 08:16:46;;;;;;;1.10;1.00;;;;;;;;;;5038996;28;20201;-84
2023/06/05 08:19:13;;;;;;;1.20;1.10;;;;;;;;;;5038082;28;20257;-84
2023/06/05 08:21:41;;;;;;;0.90;0.90;;;;;;;;;;5037831;28;20285;-84
2023/06/05 08:24:08;;;;;;;0.85;0.85;;;;;;;;;;5036947;28;20628;-83
2023/06/05 08:26:36;;;;;;;1.20;1.20;;;;;;;;;;5036914;28;20229;-85
2023/06/05 08:29:04;;;;;;;1.65;1.55;;;;;;;;;;5036565;28;20245;-84
2023/06/05 08:31:33;;;;;;;3.22;1.50;;;;;;;;;;5048102;28;20312;-85
2023/06/05 08:34:02;;;;;;;1.42;1.33;;;;;;;;;;5056558;28;20222;-84
2023/06/05 08:36:32;;;;;;;3.53;1.85;;;;;;;;;;5055616;28;20285;-84
2023/06/05 08:38:59;;;;;;;1.27;1.17;;;;;;;;;;5056199;28;20201;-83
2023/06/05 08:41:28;;;;;;;1.40;1.30;;;;;;;;;;5056862;28;20632;-84
2023/06/05 08:43:55;;;;;;;2.58;1.27;;;;;;;;;;5057476;28;20704;-84
2023/06/05 08:46:23;;;;;;;1.70;1.20;;;;;;;;;;5057316;28;20817;-84
2023/06/05 08:48:53;;;;;;;1.60;1.50;;;;;;;;;;5059230;28;20221;-84
2023/06/05 08:51:22;;;;;;;1.58;1.48;;;;;;;;;;5047944;28;20217;-84
2023/06/05 08:53:55;;;;;;;1.52;1.42;;;;;;;;;;5038187;28;20645;-83
2023/06/05 08:56:23;;;;;;;1.58;1.35;;;;;;;;;;5039451;28;20249;-84
2023/06/05 08:58:51;;;;;;;1.65;1.58;;;;;;;;;;5037776;28;20198;-84
2023/06/05 09:01:18;;;;;;;2.22;1.23;;;;;;;;;;5038793;28;20659;-85
2023/06/05 09:03:46;;;;;;;1.33;1.23;;;;;;;;;;5037984;28;20682;-83
2023/06/05 09:06:13;;;;;;;1.30;1.20;;;;;;;;;;5038020;28;20208;-84
2023/06/05 09:08:42;;;;;;;1.40;1.20;;;;;;;;;;5037604;28;20198;-84
2023/06/05 09:11:27;;;;;;;1.50;1.40;;;;;;;;;;5035075;28;20324;-84
2023/06/05 09:13:56;;;;;;;1.67;1.30;;;;;;;;;;5036038;28;20194;-83
2023/06/05 09:16:36;;;;;;;1.42;1.33;;;;;;;;;;5035832;28;20190;-84
2023/06/05 09:19:04;;;;;;;1.20;1.20;;;;;;;;;;5035570;28;20217;-84
2023/06/05 09:21:32;;;;;;;1.38;1.27;;;;;;;;;;5036008;28;20297;-84
2023/06/05 09:24:18;;;;;;;1.85;1.65;;;;;;;;;;5035578;28;20202;-85
2023/06/05 09:26:57;;;;;;;1.33;1.23;;;;;;;;;;5035588;28;20226;-84
2023/06/05 09:29:28;;;;;;;1.30;1.20;;;;;;;;;;5035835;28;20232;-84
2023/06/05 09:31:57;;;;;;;1.20;1.20;;;;;;;;;;5035613;28;20272;-85
2023/06/05 09:34:30;;;;;;;1.15;1.10;;;;;;;;;;5035996;28;20238;-84
2023/06/05 09:36:59;;;;;;;1.50;1.40;;;;;;;;;;5035205;28;20278;-85
2023/06/05 09:39:29;;;;;;;1.40;1.30;;;;;;;;;;5034372;28;20218;-85
2023/06/05 09:41:58;;;;;;;1.27;1.17;;;;;;;;;;5033956;28;20558;-84
2023/06/05 09:44:27;;;;;;;1.30;1.20;;;;;;;;;;5034921;28;20288;-84
2023/06/05 09:46:58;;;;;;;1.50;1.40;;;;;;;;;;5034208;28;20204;-85
2023/06/05 09:49:29;;;;;;;1.40;1.30;;;;;;;;;;5033925;28;20226;-84
2023/06/05 09:51:58;;;;;;;1.50;1.40;;;;;;;;;;5033693;28;20230;-85
2023/06/05 09:54:30;;;;;;;1.63;1.45;;;;;;;;;;5034020;28;20198;-85
2023/06/05 09:57:00;;;;;;;1.27;1.27;;;;;;;;;;5032965;28;20281;-87
2023/06/05 09:59:31;;;;;;;2.55;1.75;;;;;;;;;;5035339;28;20244;-87
2023/06/05 10:02:04;;;;;;;1.58;1.48;;;;;;;;;;5055009;28;20186;-87
2023/06/05 10:04:37;;;;;;;1.92;1.65;;;;;;;;;;5054021;28;20205;-86
2023/06/05 10:07:05;;;;;;;2.00;1.50;;;;;;;;;;5053872;28;20196;-85
2023/06/05 10:09:34;;;;;;;1.80;1.70;;;;;;;;;;5053769;28;20353;-87
2023/06/05 10:12:03;;;;;;;1.83;1.58;;;;;;;;;;5052899;28;20232;-88
2023/06/05 10:14:31;;;;;;;2.83;2.63;;;;;;;;;;5052927;28;20211;-88
2023/06/05 10:16:59;;;;;;;1.63;1.52;;;;;;;;;;5052725;28;20288;-87
2023/06/05 10:19:26;;;;;;;1.83;1.70;;;;;;;;;;5052308;28;20312;-86
2023/06/05 10:21:55;;;;;;;1.52;1.42;;;;;;;;;;5046354;28;20659;-88
2023/06/05 10:24:27;;;;;;;1.50;1.40;;;;;;;;;;5050275;28;20272;-88
2023/06/05 10:27:20;;;;;;;1.75;1.65;;;;;;;;;;5052985;28;20598;-88
2023/06/05 10:30:42;;;;;;;1.10;1.10;;;;;;;;;;5044867;28;20222;-88
2023/06/05 10:33:26;;;;;;;1.65;1.50;;;;;;;;;;4993585;28;20224;-87
2023/06/05 10:36:01;;;;;;;1.52;1.42;;;;;;;;;;4990730;28;20180;-87
2023/06/05 10:38:29;;;;;;;1.60;1.10;;;;;;;;;;5008326;28;20212;-86
2023/06/05 10:40:58;;;;;;;1.38;1.27;;;;;;;;;;5032652;28;20272;-87
2023/06/05 10:43:29;;;;;;;1.88;1.77;;;;;;;;;;5032723;28;20579;-89
2023/06/05 10:45:59;;;;;;;1.40;1.30;;;;;;;;;;5049810;28;20229;-87
2023/06/05 10:49:07;;;;;;;1.50;1.40;;;;;;;;;;5052222;28;20667;-87
2023/06/05 10:51:39;;;;;;;2.35;1.30;;;;;;;;;;5052584;28;20198;-85
2023/06/05 10:54:08;;;;;;;2.78;1.60;;;;;;;;;;5044393;28;20229;-86
2023/06/05 10:56:56;;;;;;;1.60;1.50;;;;;;;;;;5032774;28;20289;-88
2023/06/05 10:59:25;;;;;;;1.20;1.20;;;;;;;;;;5033707;28;20644;-88
2023/06/05 11:02:26;;;;;;;1.20;1.10;;;;;;;;;;5032600;28;20212;-86
2023/06/05 11:05:11;;;;;;;1.90;1.70;;;;;;;;;;5032574;28;20281;-88
2023/06/05 11:07:39;;;;;;;1.50;1.40;;;;;;;;;;5034716;28;20603;-87
2023/06/05 11:10:18;;;;;;;1.42;1.33;;;;;;;;;;5036098;28;20229;-87
2023/06/05 11:12:59;;;;;;;1.00;1.00;;;;;;;;;;5036695;28;20229;-86
2023/06/05 11:15:42;;;;;;;1.50;1.40;;;;;;;;;;5048701;28;20197;-86
2023/06/05 11:18:33;;;;;;;2.88;1.75;;;;;;;;;;5036532;28;20237;-88
2023/06/05 11:21:01;;;;;;;1.55;1.45;;;;;;;;;;5036342;28;20313;-85
2023/06/05 11:23:29;;;;;;;1.58;1.48;;;;;;;;;;5036471;28;20203;-86
2023/06/05 11:25:59;;;;;;;1.80;1.70;;;;;;;;;;5036085;28;20205;-87
2023/06/05 11:28:43;;;;;;;1.50;1.40;;;;;;;;;;5037057;28;20236;-87
2023/06/05 11:31:12;;;;;;;1.48;1.38;;;;;;;;;;5053383;28;20316;-88
2023/06/05 11:33:40;;;;;;;1.65;1.55;;;;;;;;;;5036339;28;20254;-88
2023/06/05 11:36:08;;;;;;;2.25;1.48;;;;;;;;;;5036198;28;20209;-86
2023/06/05 11:38:36;;;;;;;2.13;1.90;;;;;;;;;;5035956;28;20210;-88
2023/06/05 11:41:09;;;;;;;1.70;1.60;;;;;;;;;;5060045;28;20252;-88
2023/06/05 11:43:44;;;;;;;1.55;1.30;;;;;;;;;;5061060;28;20281;-88
2023/06/05 11:46:13;;;;;;;2.75;1.50;;;;;;;;;;5055556;28;20568;-88
2023/06/05 11:48:47;;;;;;;1.80;1.70;;;;;;;;;;5055921;28;20201;-88
2023/06/05 11:51:15;;;;;;;1.50;1.40;;;;;;;;;;5045266;28;20236;-87
2023/06/05 11:53:49;;;;;;;2.13;1.88;;;;;;;;;;5055659;28;20224;-87
2023/06/05 11:56:17;;;;;;;2.40;1.98;;;;;;;;;;5055547;28;20622;-88
2023/06/05 11:58:45;;;;;;;1.65;1.55;;;;;;;;;;5055159;28;20229;-87
2023/06/05 12:01:21;;;;;;;1.67;1.58;;;;;;;;;;5055593;28;20194;-88
2023/06/05 12:03:50;;;;;;;1.52;1.42;;;;;;;;;;5055659;28;20216;-87
2023/06/05 12:06:18;;;;;;;1.33;1.27;;;;;;;;;;5055525;28;20204;-87
2023/06/05 12:08:46;;;;;;;1.58;1.48;;;;;;;;;;5037755;28;20276;-86
2023/06/05 12:11:25;;;;;;;1.58;1.52;;;;;;;;;;5035467;28;20225;-88
2023/06/05 12:13:54;;;;;;;1.45;1.35;;;;;;;;;;5039041;28;20252;-87
2023/06/05 12:16:32;;;;;;;1.45;1.35;;;;;;;;;;5055359;28;20272;-86
2023/06/05 12:19:00;;;;;;;1.30;1.30;;;;;;;;;;5036398;28;20189;-87
2023/06/05 12:21:29;;;;;;;1.83;1.50;;;;;;;;;;5044876;28;20213;-86
2023/06/05 12:24:03;;;;;;;2.42;1.55;;;;;;;;;;5055160;28;20716;-88
2023/06/05 12:26:32;;;;;;;1.52;1.42;;;;;;;;;;5055024;28;20198;-86
2023/06/05 12:29:06;;;;;;;1.85;1.73;;;;;;;;;;5034651;28;20202;-86
2023/06/05 12:31:39;;;;;;;1.67;1.58;;;;;;;;;;5046903;28;20719;-86
2023/06/05 12:34:07;;;;;;;1.80;1.50;;;;;;;;;;5074716;28;20259;-86
2023/06/05 12:36:41;;;;;;;1.27;1.20;;;;;;;;;;5074741;28;20292;-86
2023/06/05 12:39:10;;;;;;;1.42;1.33;;;;;;;;;;5074779;28;20221;-86
2023/06/05 12:41:37;;;;;;;1.33;1.27;;;;;;;;;;5074531;28;20204;-86
2023/06/05 12:44:06;;;;;;;1.33;1.33;;;;;;;;;;5047993;28;20690;-86
2023/06/05 12:46:35;;;;;;;1.75;1.65;;;;;;;;;;5054589;28;20190;-87
2023/06/05 12:49:03;;;;;;;1.85;1.63;;;;;;;;;;5054295;28;20539;-86
2023/06/05 12:51:32;;;;;;;1.67;1.50;;;;;;;;;;5054532;28;20201;-86
2023/06/05 12:53:59;;;;;;;1.50;1.40;;;;;;;;;;5053785;28;20222;-88
2023/06/05 12:56:28;;;;;;;1.60;1.38;;;;;;;;;;5054594;28;20213;-88
2023/06/05 12:58:58;;;;;;;1.27;1.17;;;;;;;;;;5044644;28;20202;-86
2023/06/05 13:01:28;;;;;;;1.55;1.45;;;;;;;;;;5059126;28;20216;-86
2023/06/05 13:03:57;;;;;;;1.58;1.48;;;;;;;;;;5057775;28;20661;-89
2023/06/05 13:06:25;;;;;;;1.55;1.45;;;;;;;;;;5033925;28;20210;-87
2023/06/05 13:08:52;;;;;;;2.10;1.55;;;;;;;;;;5043647;28;20205;-87
2023/06/05 13:11:21;;;;;;;1.60;1.52;;;;;;;;;;5053688;28;20624;-86
2023/06/05 13:13:48;;;;;;;1.27;1.27;;;;;;;;;;5053685;28;20285;-87
2023/06/05 13:16:16;;;;;;;1.60;1.50;;;;;;;;;;5035742;28;20208;-87
2023/06/05 13:18:43;;;;;;;1.38;1.27;;;;;;;;;;5033879;28;20252;-88
2023/06/05 13:21:12;;;;;;;1.60;1.50;;;;;;;;;;5038939;28;20344;-89
2023/06/05 13:23:40;;;;;;;2.05;1.92;;;;;;;;;;5057442;28;20198;-88
2023/06/05 13:26:07;;;;;;;2.78;2.00;;;;;;;;;;5053971;28;20251;-86
2023/06/05 13:28:34;;;;;;;2.25;2.13;;;;;;;;;;5053575;28;20251;-85
2023/06/05 13:31:02;;;;;;;1.65;1.45;;;;;;;;;;5053683;28;20701;-87
2023/06/05 13:33:30;;;;;;;1.65;1.55;;;;;;;;;;5053770;28;20641;-87
2023/06/05 13:35:58;;;;;;;1.75;1.65;;;;;;;;;;5053767;28;20710;-88
2023/06/05 13:38:27;;;;;;;2.30;1.30;;;;;;;;;;5053474;28;20198;-87
2023/06/05 13:40:54;;;;;;;1.95;1.80;;;;;;;;;;5052693;28;20705;-90
2023/06/05 13:43:23;;;;;;;1.67;1.58;;;;;;;;;;5046052;28;20281;-88
2023/06/05 13:45:51;;;;;;;1.60;1.50;;;;;;;;;;5033652;28;20202;-87
2023/06/05 13:48:19;;;;;;;1.90;1.80;;;;;;;;;;5033800;28;20279;-87
2023/06/05 13:50:47;;;;;;;2.08;1.88;;;;;;;;;;5033729;28;20627;-91
2023/06/05 13:53:14;;;;;;;1.80;1.65;;;;;;;;;;5033840;28;20202;-91
2023/06/05 13:55:43;;;;;;;1.70;1.60;;;;;;;;;;5033670;28;20260;-89
2023/06/05 13:58:11;;;;;;;3.85;2.13;;;;;;;;;;5038378;28;20289;-89
2023/06/05 14:00:38;;;;;;;1.65;1.55;;;;;;;;;;5073223;28;20221;-88
2023/06/05 14:03:06;;;;;;;2.67;1.98;;;;;;;;;;5047064;28;20693;-87
2023/06/05 14:05:33;;;;;;;1.52;1.42;;;;;;;;;;5033160;28;20229;-86
2023/06/05 14:08:02;;;;;;;1.70;1.60;;;;;;;;;;5042228;28;20286;-88
2023/06/05 14:10:30;;;;;;;3.00;1.65;;;;;;;;;;5053264;28;20627;-86
2023/06/05 14:12:58;;;;;;;1.63;1.50;;;;;;;;;;5053114;28;20616;-87
2023/06/05 14:15:28;;;;;;;1.90;1.60;;;;;;;;;;5032578;28;20313;-86
2023/06/05 14:17:55;;;;;;;1.70;1.60;;;;;;;;;;5032909;28;20222;-85
2023/06/05 14:20:24;;;;;;;1.63;1.52;;;;;;;;;;5032651;28;20233;-87
2023/06/05 14:22:53;;;;;;;1.63;1.52;;;;;;;;;;5032725;28;20639;-86
2023/06/05 14:25:20;;;;;;;3.35;1.83;;;;;;;;;;5031982;28;20187;-85
2023/06/05 14:27:48;;;;;;;1.67;1.58;;;;;;;;;;5037354;28;20209;-89
2023/06/05 14:30:17;;;;;;;1.92;1.73;;;;;;;;;;5052490;28;20706;-87
2023/06/05 14:32:44;;;;;;;2.95;1.90;;;;;;;;;;5053103;28;20236;-85
2023/06/05 14:35:12;;;;;;;1.60;1.50;;;;;;;;;;5052331;28;20222;-86
2023/06/05 14:37:39;;;;;;;1.52;1.42;;;;;;;;;;5052319;28;20237;-86
2023/06/05 14:40:09;;;;;;;1.65;1.55;;;;;;;;;;5052949;28;20328;-87
2023/06/05 14:42:36;;;;;;;1.70;1.60;;;;;;;;;;5052880;28;20228;-89
2023/06/05 14:45:05;;;;;;;2.22;1.58;;;;;;;;;;5053079;28;20641;-90
2023/06/05 14:47:34;;;;;;;1.67;1.58;;;;;;;;;;5049047;28;20310;-87
2023/06/05 14:50:02;;;;;;;2.65;1.83;;;;;;;;;;5052920;28;20225;-86
2023/06/05 14:52:29;;;;;;;1.60;1.50;;;;;;;;;;5052363;28;20206;-86
2023/06/05 14:54:57;;;;;;;1.88;1.77;;;;;;;;;;5050504;28;20309;-87
2023/06/05 14:57:24;;;;;;;1.73;1.63;;;;;;;;;;5032437;28;20656;-85